Wilson Norfolk — 9HA2466 — position and weather

sailwx.info

Track history (hours):
 
Tides and Currents Weather Stations Pressure Air Temp Water Temp Dewpoint Dewpoint Depression Visibility Wind Speed Wind Dir Waves Ship Positions

Wilson Norfolk

Last reported at 2015-Mar-26 21:14 UTC. Time now 2015-Mar-27 08:14 UTC.
Position N 58°44' E 010°01'.

Length 123 m; draft 5.1 m.

Type: Ship. MMSI: 248678000.

Date/timePositionNaut miles runAvg speedWind from/ knotsBaromVisibWave heightAir tempDewpointWater temp
2015-Mar-26 21:14N 58°44' E 010°01'912.9
2015-Mar-26 20:31N 58°50' E 010°13'1312.9
2015-Mar-26 19:32N 58°59' E 010°30'1111.4
2015-Mar-26 18:33N 59°10' E 010°37'1313.2
2015-Mar-26 17:33N 59°23' E 010°33'1313.1
2015-Mar-26 16:33N 59°36' E 010°38'1512.5
2015-Mar-26 15:22N 59°51' E 010°37'5 5.0
2015-Mar-26 14:26N 59°54' E 010°43'0 0.0
2015-Mar-26 13:29N 59°54' E 010°43'0 0.0
2015-Mar-26 12:26N 59°54' E 010°43'0 0.0
2015-Mar-26 11:29N 59°54' E 010°43'0 0.0
2015-Mar-26 10:32N 59°54' E 010°43'0 0.0
2015-Mar-26 09:32N 59°54' E 010°43'0 0.0
2015-Mar-26 08:20N 59°54' E 010°43'0 0.0
2015-Mar-26 07:32N 59°54' E 010°43'0 0.0
2015-Mar-26 06:32N 59°54' E 010°43'0 0.0
2015-Mar-26 05:20N 59°54' E 010°43'0 0.0
2015-Mar-26 04:23N 59°54' E 010°43'0 0.0
2015-Mar-26 03:26N 59°54' E 010°43'0 0.0
2015-Mar-26 02:23N 59°54' E 010°43'0 0.0
2015-Mar-26 01:26N 59°54' E 010°43'0 0.0
2015-Mar-26 00:29N 59°54' E 010°43'0 0.0
2015-Mar-25 23:26N 59°54' E 010°43'0 0.0
2015-Mar-25 22:29N 59°54' E 010°43'0 0.0
2015-Mar-25 21:32N 59°54' E 010°43'0 0.0
2015-Mar-25 20:29N 59°54' E 010°43'0 0.0
2015-Mar-25 19:29N 59°54' E 010°43'0 0.0
2015-Mar-25 18:32N 59°54' E 010°43'0 0.0
2015-Mar-25 17:32N 59°54' E 010°43'0 0.0
2015-Mar-25 16:32N 59°54' E 010°43'0 0.0
2015-Mar-25 15:23N 59°54' E 010°43'0 0.0
2015-Mar-25 14:23N 59°54' E 010°43'0 0.0
2015-Mar-25 13:26N 59°54' E 010°43'0 0.0
2015-Mar-25 12:26N 59°54' E 010°43'0 0.0
2015-Mar-25 11:26N 59°54' E 010°43'0 0.0
2015-Mar-25 10:29N 59°54' E 010°43'0 0.0
2015-Mar-25 09:26N 59°54' E 010°43'0 0.0
2015-Mar-25 08:32N 59°54' E 010°43'0 0.0
2015-Mar-25 07:32N 59°54' E 010°43'0 0.0
2015-Mar-25 06:17N 59°54' E 010°43'0 0.0
2015-Mar-25 05:29N 59°54' E 010°43'0 0.0
2015-Mar-25 04:32N 59°54' E 010°43'18 8.9
2015-Mar-25 02:33N 59°37' E 010°38'1212.2
2015-Mar-25 01:34N 59°25' E 010°34'1313.0
2015-Mar-25 00:33N 59°12' E 010°38'1211.7
2015-Mar-24 23:33N 59°01' E 010°37'1212.4
2015-Mar-24 22:33N 58°49' E 010°44'1212.5
2015-Mar-24 21:33N 58°37' E 010°51'1413.9
2015-Mar-24 20:34N 58°24' E 010°58'1414.1
2015-Mar-24 19:33N 58°10' E 011°06'1414.4
2015-Mar-24 18:33N 57°56' E 011°13'1313.0
2015-Mar-24 17:33N 57°44' E 011°20'1313.2
2015-Mar-24 16:33N 57°32' E 011°30'1313.2
2015-Mar-24 15:33N 57°21' E 011°44'1313.3
2015-Mar-24 14:33N 57°09' E 011°56'1413.8
2015-Mar-24 13:33N 56°56' E 012°05'1413.6
2015-Mar-24 12:33N 56°43' E 012°11'1413.3
2015-Mar-24 11:32N 56°30' E 012°17'1313.2
2015-Mar-24 10:33N 56°18' E 012°23'1212.4
2015-Mar-24 09:33N 56°07' E 012°34'1110.9
2015-Mar-24 08:33N 55°57' E 012°43'1212.5
2015-Mar-24 07:34N 55°45' E 012°42'1010.4
2015-Mar-24 06:33N 55°34' E 012°42'1111.3
2015-Mar-24 05:33N 55°23' E 012°41'1010.1
2015-Mar-24 04:33N 55°16' E 012°54'1212.1
2015-Mar-24 03:33N 55°15' E 013°15'1311.8
2015-Mar-24 02:25N 55°14' E 013°39'1011.8
2015-Mar-24 01:33N 55°14' E 013°57'1211.5
2015-Mar-24 00:33N 55°14' E 014°17'1211.8
2015-Mar-23 23:33N 55°22' E 014°30'1211.8
2015-Mar-23 22:33N 55°30' E 014°46'1211.9
2015-Mar-23 21:33N 55°36' E 015°04'1212.0
2015-Mar-23 20:33N 55°42' E 015°23'  
2015-Mar-19 00:32N 56°01' E 016°36'1111.4
2015-Mar-18 23:33N 55°55' E 016°19'1111.2
2015-Mar-18 22:33N 55°50' E 016°01'1111.3
2015-Mar-18 21:33N 55°44' E 015°44'1211.8
2015-Mar-18 20:33N 55°38' E 015°26'1311.4
2015-Mar-18 19:27N 55°32' E 015°06'1111.8
2015-Mar-18 18:33N 55°27' E 014°50'1211.9
2015-Mar-18 17:33N 55°20' E 014°34'1211.8
2015-Mar-18 16:33N 55°11' E 014°19'1211.6
2015-Mar-18 15:31N 55°10' E 013°58'1111.8
2015-Mar-18 14:33N 55°12' E 013°38'1111.5
2015-Mar-18 13:33N 55°13' E 013°18'1111.2
2015-Mar-18 12:33N 55°14' E 012°59'1111.4
2015-Mar-18 11:33N 55°17' E 012°40'1111.1
2015-Mar-18 10:33N 55°29' E 012°41'1110.6
2015-Mar-18 09:33N 55°39' E 012°41'1212.2
2015-Mar-18 08:33N 55°51' E 012°41'1211.7
2015-Mar-18 07:33N 56°03' E 012°39'1110.5
2015-Mar-18 06:33N 56°10' E 012°24'1010.5
2015-Mar-18 05:34N 56°20' E 012°20'10 9.7
2015-Mar-18 04:33N 56°29' E 012°17'1111.3
2015-Mar-18 03:32N 56°41' E 012°12'1111.5
2015-Mar-18 02:33N 56°52' E 012°08'1111.2
2015-Mar-18 01:33N 57°03' E 012°02'1110.7
2015-Mar-18 00:33N 57°12' E 011°54'1110.5
2015-Mar-17 23:33N 57°21' E 011°44'1010.3
2015-Mar-17 22:33N 57°30' E 011°33'1110.7
2015-Mar-17 21:33N 57°39' E 011°23'1111.0
2015-Mar-17 20:33N 57°50' E 011°18'1111.5
2015-Mar-17 19:33N 58°01' E 011°11'1111.5
2015-Mar-17 18:33N 58°12' E 011°05'1111.2
2015-Mar-17 17:33N 58°22' E 010°58'1211.7
2015-Mar-17 16:33N 58°33' E 010°52'1211.9
2015-Mar-17 15:33N 58°45' E 010°45'1212.0
2015-Mar-17 14:33N 58°57' E 010°39'1111.0
2015-Mar-17 13:33N 59°07' E 010°34'1313.2
2015-Mar-17 12:34N 59°20' E 010°35'1313.3
2015-Mar-17 11:34N 59°34' E 010°37'1312.8
2015-Mar-17 10:30N 59°47' E 010°34'9 8.6
2015-Mar-17 09:30N 59°54' E 010°43'0 0.0
2015-Mar-17 08:32N 59°54' E 010°43'0 0.0
2015-Mar-17 07:21N 59°54' E 010°43'0 0.0
2015-Mar-17 06:32N 59°54' E 010°43'0 0.0
2015-Mar-17 05:24N 59°54' E 010°43'0 0.0
2015-Mar-17 04:27N 59°54' E 010°43'0 0.0
2015-Mar-17 03:27N 59°54' E 010°43'0 0.0
2015-Mar-17 02:27N 59°54' E 010°43'0 0.0
2015-Mar-17 01:27N 59°54' E 010°43'0 0.0
2015-Mar-17 00:27N 59°54' E 010°43'0 0.0
2015-Mar-16 23:27N 59°54' E 010°43'0 0.0
2015-Mar-16 22:33N 59°54' E 010°43'0 0.0
2015-Mar-16 21:18N 59°54' E 010°43'  
Track history (hours):
 
Tides and Currents Weather Stations Pressure Air Temp Water Temp Dewpoint Dewpoint Depression Visibility Wind Speed Wind Dir Waves Ship Positions

Wilson Norfolk

Last reported at 2015-Mar-26 21:14 UTC. Time now 2015-Mar-27 08:14 UTC.
Position N 58°44' E 010°01'.

Length 123 m; draft 5.1 m.

Type: Ship. MMSI: 248678000.

Date/timePositionNaut miles runAvg speedWind from/ knotsBaromVisibWave heightAir tempDewpointWater temp
2015-Mar-26 21:14N 58°44' E 010°01'912.9
2015-Mar-26 20:31N 58°50' E 010°13'1312.9
2015-Mar-26 19:32N 58°59' E 010°30'1111.4
2015-Mar-26 18:33N 59°10' E 010°37'1313.2
2015-Mar-26 17:33N 59°23' E 010°33'1313.1
2015-Mar-26 16:33N 59°36' E 010°38'1512.5
2015-Mar-26 15:22N 59°51' E 010°37'5 5.0
2015-Mar-26 14:26N 59°54' E 010°43'0 0.0
2015-Mar-26 13:29N 59°54' E 010°43'0 0.0
2015-Mar-26 12:26N 59°54' E 010°43'0 0.0
2015-Mar-26 11:29N 59°54' E 010°43'0 0.0
2015-Mar-26 10:32N 59°54' E 010°43'0 0.0
2015-Mar-26 09:32N 59°54' E 010°43'0 0.0
2015-Mar-26 08:20N 59°54' E 010°43'0 0.0
2015-Mar-26 07:32N 59°54' E 010°43'0 0.0
2015-Mar-26 06:32N 59°54' E 010°43'0 0.0
2015-Mar-26 05:20N 59°54' E 010°43'0 0.0
2015-Mar-26 04:23N 59°54' E 010°43'0 0.0
2015-Mar-26 03:26N 59°54' E 010°43'0 0.0
2015-Mar-26 02:23N 59°54' E 010°43'0 0.0
2015-Mar-26 01:26N 59°54' E 010°43'0 0.0
2015-Mar-26 00:29N 59°54' E 010°43'0 0.0
2015-Mar-25 23:26N 59°54' E 010°43'0 0.0
2015-Mar-25 22:29N 59°54' E 010°43'0 0.0
2015-Mar-25 21:32N 59°54' E 010°43'0 0.0
2015-Mar-25 20:29N 59°54' E 010°43'0 0.0
2015-Mar-25 19:29N 59°54' E 010°43'0 0.0
2015-Mar-25 18:32N 59°54' E 010°43'0 0.0
2015-Mar-25 17:32N 59°54' E 010°43'0 0.0
2015-Mar-25 16:32N 59°54' E 010°43'0 0.0
2015-Mar-25 15:23N 59°54' E 010°43'0 0.0
2015-Mar-25 14:23N 59°54' E 010°43'0 0.0
2015-Mar-25 13:26N 59°54' E 010°43'0 0.0
2015-Mar-25 12:26N 59°54' E 010°43'0 0.0
2015-Mar-25 11:26N 59°54' E 010°43'0 0.0
2015-Mar-25 10:29N 59°54' E 010°43'0 0.0
2015-Mar-25 09:26N 59°54' E 010°43'0 0.0
2015-Mar-25 08:32N 59°54' E 010°43'0 0.0
2015-Mar-25 07:32N 59°54' E 010°43'0 0.0
2015-Mar-25 06:17N 59°54' E 010°43'0 0.0
2015-Mar-25 05:29N 59°54' E 010°43'0 0.0
2015-Mar-25 04:32N 59°54' E 010°43'18 8.9
2015-Mar-25 02:33N 59°37' E 010°38'1212.2
2015-Mar-25 01:34N 59°25' E 010°34'1313.0
2015-Mar-25 00:33N 59°12' E 010°38'1211.7
2015-Mar-24 23:33N 59°01' E 010°37'1212.4
2015-Mar-24 22:33N 58°49' E 010°44'1212.5
2015-Mar-24 21:33N 58°37' E 010°51'1413.9
2015-Mar-24 20:34N 58°24' E 010°58'1414.1
2015-Mar-24 19:33N 58°10' E 011°06'1414.4
2015-Mar-24 18:33N 57°56' E 011°13'1313.0
2015-Mar-24 17:33N 57°44' E 011°20'1313.2
2015-Mar-24 16:33N 57°32' E 011°30'1313.2
2015-Mar-24 15:33N 57°21' E 011°44'1313.3
2015-Mar-24 14:33N 57°09' E 011°56'1413.8
2015-Mar-24 13:33N 56°56' E 012°05'1413.6
2015-Mar-24 12:33N 56°43' E 012°11'1413.3
2015-Mar-24 11:32N 56°30' E 012°17'1313.2
2015-Mar-24 10:33N 56°18' E 012°23'1212.4
2015-Mar-24 09:33N 56°07' E 012°34'1110.9
2015-Mar-24 08:33N 55°57' E 012°43'1212.5
2015-Mar-24 07:34N 55°45' E 012°42'1010.4
2015-Mar-24 06:33N 55°34' E 012°42'1111.3
2015-Mar-24 05:33N 55°23' E 012°41'1010.1
2015-Mar-24 04:33N 55°16' E 012°54'1212.1
2015-Mar-24 03:33N 55°15' E 013°15'1311.8
2015-Mar-24 02:25N 55°14' E 013°39'1011.8
2015-Mar-24 01:33N 55°14' E 013°57'1211.5
2015-Mar-24 00:33N 55°14' E 014°17'1211.8
2015-Mar-23 23:33N 55°22' E 014°30'1211.8
2015-Mar-23 22:33N 55°30' E 014°46'1211.9
2015-Mar-23 21:33N 55°36' E 015°04'1212.0
2015-Mar-23 20:33N 55°42' E 015°23'  
2015-Mar-19 00:32N 56°01' E 016°36'1111.4
2015-Mar-18 23:33N 55°55' E 016°19'1111.2
2015-Mar-18 22:33N 55°50' E 016°01'1111.3
2015-Mar-18 21:33N 55°44' E 015°44'1211.8
2015-Mar-18 20:33N 55°38' E 015°26'1311.4
2015-Mar-18 19:27N 55°32' E 015°06'1111.8
2015-Mar-18 18:33N 55°27' E 014°50'1211.9
2015-Mar-18 17:33N 55°20' E 014°34'1211.8
2015-Mar-18 16:33N 55°11' E 014°19'1211.6
2015-Mar-18 15:31N 55°10' E 013°58'1111.8
2015-Mar-18 14:33N 55°12' E 013°38'1111.5
2015-Mar-18 13:33N 55°13' E 013°18'1111.2
2015-Mar-18 12:33N 55°14' E 012°59'1111.4
2015-Mar-18 11:33N 55°17' E 012°40'1111.1
2015-Mar-18 10:33N 55°29' E 012°41'1110.6
2015-Mar-18 09:33N 55°39' E 012°41'1212.2
2015-Mar-18 08:33N 55°51' E 012°41'1211.7
2015-Mar-18 07:33N 56°03' E 012°39'1110.5
2015-Mar-18 06:33N 56°10' E 012°24'1010.5
2015-Mar-18 05:34N 56°20' E 012°20'10 9.7
2015-Mar-18 04:33N 56°29' E 012°17'1111.3
2015-Mar-18 03:32N 56°41' E 012°12'1111.5
2015-Mar-18 02:33N 56°52' E 012°08'1111.2
2015-Mar-18 01:33N 57°03' E 012°02'1110.7
2015-Mar-18 00:33N 57°12' E 011°54'1110.5
2015-Mar-17 23:33N 57°21' E 011°44'1010.3
2015-Mar-17 22:33N 57°30' E 011°33'1110.7
2015-Mar-17 21:33N 57°39' E 011°23'1111.0
2015-Mar-17 20:33N 57°50' E 011°18'1111.5
2015-Mar-17 19:33N 58°01' E 011°11'1111.5
2015-Mar-17 18:33N 58°12' E 011°05'1111.2
2015-Mar-17 17:33N 58°22' E 010°58'1211.7
2015-Mar-17 16:33N 58°33' E 010°52'1211.9
2015-Mar-17 15:33N 58°45' E 010°45'1212.0
2015-Mar-17 14:33N 58°57' E 010°39'1111.0
2015-Mar-17 13:33N 59°07' E 010°34'1313.2
2015-Mar-17 12:34N 59°20' E 010°35'1313.3
2015-Mar-17 11:34N 59°34' E 010°37'1312.8
2015-Mar-17 10:30N 59°47' E 010°34'9 8.6
2015-Mar-17 09:30N 59°54' E 010°43'0 0.0
2015-Mar-17 08:32N 59°54' E 010°43'0 0.0
2015-Mar-17 07:21N 59°54' E 010°43'0 0.0
2015-Mar-17 06:32N 59°54' E 010°43'0 0.0
2015-Mar-17 05:24N 59°54' E 010°43'0 0.0
2015-Mar-17 04:27N 59°54' E 010°43'0 0.0
2015-Mar-17 03:27N 59°54' E 010°43'0 0.0
2015-Mar-17 02:27N 59°54' E 010°43'0 0.0
2015-Mar-17 01:27N 59°54' E 010°43'0 0.0
2015-Mar-17 00:27N 59°54' E 010°43'0 0.0
2015-Mar-16 23:27N 59°54' E 010°43'0 0.0
2015-Mar-16 22:33N 59°54' E 010°43'0 0.0
2015-Mar-16 21:18N 59°54' E 010°43'  

Dump ship's entire track history